Time;durP1;ratioP1;P1;durP2;ratioP2;P2;SDS_P1;SDS_P2;PMS_P1;PMS_P2;Temp;Humidity;BMP_temperature;BMP_pressure;BME280_temperature;BME280_humidity;BME280_pressure;Samples;Min_cycle;Max_cycle;Signal;HPM_P1;HPM_P2
2022/07/14 00:01:37;;;;;;;;;;;;;;;29.09;24.45;99344.47;4366304;32;35245;-84
2022/07/14 00:04:05;;;;;;;;;;;;;;;29.02;24.58;99343.16;4364811;32;34673;-95
2022/07/14 00:06:32;;;;;;;;;;;;;;;29.04;24.53;99344.75;4364128;32;32636;-85
2022/07/14 00:08:59;;;;;;;;;;;;;;;28.84;24.73;99340.59;4379663;32;34217;-83
2022/07/14 00:11:27;;;;;;;;;;;;;;;28.80;24.83;99344.38;4341136;33;35342;-95
2022/07/14 00:13:54;;;;;;;;;;;;;;;28.64;25.08;99340.91;4361529;32;33540;-95
2022/07/14 00:16:21;;;;;;;;;;;;;;;28.51;25.35;99343.41;4363858;32;33411;-93
2022/07/14 00:18:49;;;;;;;;;;;;;;;28.48;25.56;99354.25;4365304;32;34720;-83
2022/07/14 00:21:16;;;;;;;;;;;;;;;28.70;25.27;99345.00;4383562;32;34258;-96
2022/07/14 00:23:44;;;;;;;;;;;;;;;28.77;25.21;99343.72;4381683;32;34359;-89
2022/07/14 00:26:12;;;;;;;;;;;;;;;28.67;25.50;99345.19;4362633;32;33290;-90
2022/07/14 00:28:40;;;;;;;;;;;;;;;28.45;25.98;99349.12;4352545;32;33111;-84
2022/07/14 00:31:08;;;;;;;;;;;;;;;28.64;25.73;99348.03;4365132;32;34237;-82
2022/07/14 00:33:38;;;;;;;;;;;;;;;28.36;26.08;99349.62;4355568;32;34276;-83
2022/07/14 00:36:06;;;;;;;;;;;;;;;28.62;25.73;99341.00;4378670;32;33220;-83
2022/07/14 00:38:33;;;;;;;;;;;;;;;28.60;25.71;99345.56;4377516;32;33921;-92
2022/07/14 00:41:00;;;;;;;;;;;;;;;28.59;25.85;99338.50;4374192;32;34275;-91
2022/07/14 00:43:28;;;;;;;;;;;;;;;28.65;25.73;99341.78;4377872;32;33682;-81
2022/07/14 00:45:56;;;;;;;;;;;;;;;28.49;25.84;99349.78;4380584;32;32831;-94
2022/07/14 00:48:25;;;;;;;;;;;;;;;28.55;25.80;99347.63;4379661;32;34493;-84
2022/07/14 00:50:53;;;;;;;;;;;;;;;28.29;26.45;99348.25;4362987;32;33979;-88
2022/07/14 00:53:20;;;;;;;;;;;;;;;28.14;26.40;99350.81;4372404;32;34126;-85
2022/07/14 00:55:48;;;;;;;;;;;;;;;28.45;26.04;99348.25;4374057;32;34267;-94
2022/07/14 00:58:15;;;;;;;;;;;;;;;28.29;26.33;99342.91;4377676;32;34378;-87
2022/07/14 01:00:42;;;;;;;;;;;;;;;28.24;26.31;99345.84;4378958;32;34090;-93
2022/07/14 01:03:10;;;;;;;;;;;;;;;28.45;26.12;99342.91;4363805;32;34351;-94
2022/07/14 01:05:37;;;;;;;;;;;;;;;28.52;26.09;99339.78;4365385;32;33845;-83
2022/07/14 01:08:04;;;;;;;;;;;;;;;28.55;25.94;99347.63;4378500;32;35052;-83
2022/07/14 01:10:32;;;;;;;;;;;;;;;28.55;25.92;99350.28;4376961;32;34451;-83
2022/07/14 01:13:00;;;;;;;;;;;;;;;28.41;26.14;99352.91;4363756;32;34330;-82
2022/07/14 01:15:28;;;;;;;;;;;;;;;28.53;25.94;99349.53;4371028;32;33635;-85
2022/07/14 01:17:55;;;;;;;;;;;;;;;28.49;25.96;99339.13;4375868;32;33989;-84
2022/07/14 01:20:23;;;;;;;;;;;;;;;28.28;26.23;99352.72;4378030;32;34189;-83
2022/07/14 01:22:50;;;;;;;;;;;;;;;28.39;26.02;99357.47;4362214;32;34999;-83
2022/07/14 01:25:19;;;;;;;;;;;;;;;28.36;26.16;99354.94;4362000;32;34245;-83
2022/07/14 01:27:47;;;;;;;;;;;;;;;27.88;26.77;99351.41;4374398;32;33730;-87
2022/07/14 01:30:14;;;;;;;;;;;;;;;27.88;26.78;99346.09;4364495;32;35757;-94
2022/07/14 01:32:42;;;;;;;;;;;;;;;27.90;26.96;99346.88;4364314;32;33707;-82
2022/07/14 01:35:09;;;;;;;;;;;;;;;27.97;26.63;99353.59;4364942;32;34334;-93
2022/07/14 01:37:36;;;;;;;;;;;;;;;27.91;26.80;99342.41;4365249;32;33843;-90
2022/07/14 01:40:06;;;;;;;;;;;;;;;27.87;26.86;99341.72;4378466;32;35302;-92
2022/07/14 01:42:34;;;;;;;;;;;;;;;27.97;26.71;99348.25;4376995;32;34076;-92
2022/07/14 01:45:02;;;;;;;;;;;;;;;27.65;27.19;99342.88;4364106;32;33504;-95
2022/07/14 01:47:30;;;;;;;;;;;;;;;27.50;27.48;99341.03;4354214;32;34178;-95
2022/07/14 01:49:57;;;;;;;;;;;;;;;27.38;27.89;99342.53;4389749;32;35116;-94
2022/07/14 01:52:25;;;;;;;;;;;;;;;27.51;27.85;99340.09;4363454;32;34152;-82
2022/07/14 01:54:53;;;;;;;;;;;;;;;27.94;27.22;99343.09;4362093;32;33052;-96
2022/07/14 01:57:20;;;;;;;;;;;;;;;27.72;27.45;99342.53;4381055;32;35182;-83
2022/07/14 01:59:47;;;;;;;;;;;;;;;27.83;27.47;99340.16;4397247;32;33371;-91
2022/07/14 02:02:16;;;;;;;;;;;;;;;28.05;27.34;99343.34;4396838;32;34226;-93
2022/07/14 02:04:43;;;;;;;;;;;;;;;28.19;27.16;99341.75;4391763;32;34421;-83
2022/07/14 02:07:11;;;;;;;;;;;;;;;28.17;27.26;99339.13;4382781;32;34216;-82
2022/07/14 02:12:26;;;;;;;;;;;;;;;28.04;27.74;99346.97;4367854;32;33979;-83
2022/07/14 02:14:53;;;;;;;;;;;;;;;28.05;27.72;99347.84;4382485;32;34012;-83
2022/07/14 02:17:20;;;;;;;;;;;;;;;28.12;27.68;99341.22;4383118;32;34071;-83
2022/07/14 02:19:48;;;;;;;;;;;;;;;28.00;27.95;99347.25;4356750;32;35263;-83
2022/07/14 02:22:15;;;;;;;;;;;;;;;28.20;27.61;99340.78;4368561;32;34056;-96
2022/07/14 02:24:43;;;;;;;;;;;;;;;28.18;27.68;99337.31;4380256;32;33719;-91
2022/07/14 02:27:11;;;;;;;;;;;;;;;28.13;27.78;99338.44;4378823;32;34364;-93
2022/07/14 02:29:38;;;;;;;;;;;;;;;28.08;27.91;99345.84;4382460;32;35409;-85
2022/07/14 02:32:07;;;;;;;;;;;;;;;28.18;27.79;99342.66;4369457;32;34292;-88
2022/07/14 02:34:35;;;;;;;;;;;;;;;27.97;28.19;99350.06;4380912;32;33536;-94
2022/07/14 02:37:03;;;;;;;;;;;;;;;28.12;27.80;99350.06;4381420;32;35029;-82
2022/07/14 02:39:30;;;;;;;;;;;;;;;28.12;27.96;99350.06;4382437;32;34062;-83
2022/07/14 02:41:57;;;;;;;;;;;;;;;28.20;27.96;99348.78;4382258;32;33990;-82
2022/07/14 02:44:25;;;;;;;;;;;;;;;28.13;28.02;99353.59;4369160;32;32618;-83
2022/07/14 02:46:52;;;;;;;;;;;;;;;28.07;28.15;99357.47;4369171;32;33595;-85
2022/07/14 02:49:19;;;;;;;;;;;;;;;28.10;28.07;99354.59;4369131;32;35310;-83
2022/07/14 02:51:47;;;;;;;;;;;;;;;28.04;28.32;99362.97;4380432;32;34558;-83
2022/07/14 02:54:14;;;;;;;;;;;;;;;27.91;28.58;99359.25;4392687;32;34187;-94
2022/07/14 02:56:41;;;;;;;;;;;;;;;28.11;28.15;99361.69;4382412;32;34024;-83
2022/07/14 02:59:09;;;;;;;;;;;;;;;27.88;28.70;99359.41;4368703;32;34066;-96
2022/07/14 03:01:37;;;;;;;;;;;;;;;27.71;28.91;99362.13;4381990;32;34264;-92
2022/07/14 03:04:06;;;;;;;;;;;;;;;27.60;29.03;99371.56;4381933;32;34206;-82
2022/07/14 03:06:34;;;;;;;;;;;;;;;27.56;29.15;99370.00;4382966;32;34839;-92
2022/07/14 03:09:02;;;;;;;;;;;;;;;27.76;28.87;99370.75;4379578;32;34479;-83
2022/07/14 03:11:29;;;;;;;;;;;;;;;27.75;29.03;99369.03;4379153;32;33726;-84
2022/07/14 03:13:57;;;;;;;;;;;;;;;27.70;29.00;99365.75;4380288;32;32862;-91
2022/07/14 03:16:24;;;;;;;;;;;;;;;27.65;29.09;99366.84;4379889;32;34874;-83
2022/07/14 03:18:51;;;;;;;;;;;;;;;27.74;28.97;99357.53;4352666;32;34609;-85
2022/07/14 03:21:19;;;;;;;;;;;;;;;27.72;29.10;99356.72;4380248;32;34078;-84
2022/07/14 03:23:47;;;;;;;;;;;;;;;27.68;29.09;99359.63;4379420;32;34155;-83
2022/07/14 03:26:15;;;;;;;;;;;;;;;27.84;28.79;99360.53;4378446;32;33941;-96
2022/07/14 03:28:43;;;;;;;;;;;;;;;27.68;29.11;99363.16;4376113;32;32709;-83
2022/07/14 03:31:11;;;;;;;;;;;;;;;27.73;29.08;99365.56;4373553;32;34923;-81
2022/07/14 03:33:39;;;;;;;;;;;;;;;27.83;29.04;99357.00;4379623;32;33232;-93
2022/07/14 03:36:07;;;;;;;;;;;;;;;27.76;29.20;99362.75;4373693;32;34069;-83
2022/07/14 03:38:34;;;;;;;;;;;;;;;27.84;29.17;99358.75;4365104;32;34839;-94
2022/07/14 03:41:04;;;;;;;;;;;;;;;27.92;29.02;99355.66;4378812;32;35408;-95
2022/07/14 03:43:34;;;;;;;;;;;;;;;27.76;29.15;99362.75;4353247;32;31823;-85
2022/07/14 03:46:02;;;;;;;;;;;;;;;27.63;29.36;99365.22;4365396;32;34888;-83
2022/07/14 03:48:30;;;;;;;;;;;;;;;27.79;29.17;99365.25;4378403;32;34768;-87
2022/07/14 03:50:57;;;;;;;;;;;;;;;27.67;29.46;99368.56;4373787;32;34071;-93
2022/07/14 03:53:26;;;;;;;;;;;;;;;27.70;29.48;99371.06;4379361;32;33061;-89
2022/07/14 03:55:54;;;;;;;;;;;;;;;27.83;29.51;99377.47;4373753;32;34188;-85
2022/07/14 03:58:23;;;;;;;;;;;;;;;27.59;29.93;99374.31;4364672;32;34070;-90
2022/07/14 04:00:50;;;;;;;;;;;;;;;27.69;29.83;99370.19;4379562;32;34261;-84
2022/07/14 04:03:18;;;;;;;;;;;;;;;27.83;29.78;99372.16;4366095;32;33141;-94
2022/07/14 04:05:46;;;;;;;;;;;;;;;28.03;29.69;99371.03;4365482;32;33758;-95
2022/07/14 04:08:14;;;;;;;;;;;;;;;28.36;29.29;99370.94;4378270;32;34632;-95
2022/07/14 04:10:42;;;;;;;;;;;;;;;28.48;29.11;99366.75;4378843;32;35107;-95
2022/07/14 04:13:10;;;;;;;;;;;;;;;28.75;28.62;99361.59;4379111;32;33417;-94
2022/07/14 04:15:37;;;;;;;;;;;;;;;28.85;28.53;99368.13;4354793;32;35094;-92
2022/07/14 04:18:05;;;;;;;;;;;;;;;29.18;28.20;99362.63;4377296;32;35279;-86
2022/07/14 04:20:34;;;;;;;;;;;;;;;29.28;27.83;99360.22;4377617;32;34553;-95
2022/07/14 04:23:01;;;;;;;;;;;;;;;29.25;28.25;99361.28;4373142;32;32834;-93
2022/07/14 04:25:29;;;;;;;;;;;;;;;29.33;28.58;99361.69;4378498;32;34138;-96
2022/07/14 04:27:56;;;;;;;;;;;;;;;29.65;28.05;99368.66;4351465;32;35081;-96
2022/07/14 04:30:24;;;;;;;;;;;;;;;30.05;27.31;99359.84;4372165;32;35176;-84
2022/07/14 04:32:53;;;;;;;;;;;;;;;30.70;27.01;99363.66;4376140;32;33712;-93
2022/07/14 04:35:20;;;;;;;;;;;;;;;30.97;26.81;99355.63;4376082;32;35185;-87
2022/07/14 04:37:47;;;;;;;;;;;;;;;31.29;26.70;99352.53;4374260;32;35264;-94
2022/07/14 04:40:16;;;;;;;;;;;;;;;31.88;25.80;99359.06;4369269;32;33646;-85
2022/07/14 04:42:43;;;;;;;;;;;;;;;32.08;25.84;99354.06;4362705;32;32115;-84
2022/07/14 04:45:11;;;;;;;;;;;;;;;32.52;25.42;99358.00;4375972;32;34793;-89
2022/07/14 04:47:39;;;;;;;;;;;;;;;32.75;25.71;99353.59;4375261;32;34122;-93
2022/07/14 04:52:53;;;;;;;;;;;;;;;33.43;24.33;99350.97;4376100;32;33022;-86
2022/07/14 04:55:20;;;;;;;;;;;;;;;33.25;24.66;99348.88;4362392;32;33419;-85
2022/07/14 04:57:48;;;;;;;;;;;;;;;32.93;25.05;99347.69;4362412;32;33454;-90
2022/07/14 05:00:15;;;;;;;;;;;;;;;32.65;25.39;99350.75;4375796;32;34013;-91
2022/07/14 05:02:43;;;;;;;;;;;;;;;32.33;26.10;99363.88;4365870;32;32954;-83
2022/07/14 05:05:11;;;;;;;;;;;;;;;31.81;27.01;99357.75;4384535;32;34324;-82
2022/07/14 05:07:38;;;;;;;;;;;;;;;31.88;26.81;99359.06;4372762;32;35243;-92
2022/07/14 05:10:06;;;;;;;;;;;;;;;32.51;26.75;99361.69;4376197;32;33770;-84
2022/07/14 05:12:34;;;;;;;;;;;;;;;33.22;25.78;99351.78;4362877;32;34114;-90
2022/07/14 05:15:02;;;;;;;;;;;;;;;33.62;26.04;99360.28;4375041;32;34344;-93
2022/07/14 05:17:31;;;;;;;;;;;;;;;33.34;25.15;99356.22;4339219;32;32831;-93
2022/07/14 05:19:59;;;;;;;;;;;;;;;32.87;24.28;99358.03;4352538;32;35115;-88
2022/07/14 05:22:27;;;;;;;;;;;;;;;33.80;25.00;99361.50;4374999;32;34478;-95
2022/07/14 05:24:54;;;;;;;;;;;;;;;34.13;23.97;99362.44;4375865;32;34008;-89
2022/07/14 05:27:23;;;;;;;;;;;;;;;34.70;23.39;99364.03;4375644;32;33945;-86
2022/07/14 05:29:50;;;;;;;;;;;;;;;34.65;23.75;99360.87;4376369;32;34275;-84
2022/07/14 05:32:18;;;;;;;;;;;;;;;34.27;23.55;99362.19;4374550;32;34299;-84
2022/07/14 05:34:46;;;;;;;;;;;;;;;33.82;21.85;99361.37;4375757;32;34956;-92
2022/07/14 05:37:14;;;;;;;;;;;;;;;33.97;22.45;99360.13;4352526;32;33626;-88
2022/07/14 05:39:41;;;;;;;;;;;;;;;34.13;22.37;99357.06;4348845;32;34456;-83
2022/07/14 05:42:08;;;;;;;;;;;;;;;34.32;21.71;99356.41;4375896;32;33061;-83
2022/07/14 05:44:36;;;;;;;;;;;;;;;33.86;21.93;99346.69;4375459;32;34695;-84
2022/07/14 05:47:03;;;;;;;;;;;;;;;33.58;22.13;99348.91;4375592;32;34296;-82
2022/07/14 05:49:31;;;;;;;;;;;;;;;34.51;21.54;99353.97;4373167;32;34465;-84
2022/07/14 05:52:02;;;;;;;;;;;;;;;34.29;21.63;99349.47;4365644;32;33483;-89
2022/07/14 05:54:30;;;;;;;;;;;;;;;33.81;22.88;99354.28;4374466;32;34751;-88
2022/07/14 05:56:57;;;;;;;;;;;;;;;33.85;22.36;99345.84;4374384;32;33575;-83
2022/07/14 05:59:25;;;;;;;;;;;;;;;34.53;21.41;99351.97;4377273;32;33480;-83
2022/07/14 06:02:12;;;;;;;;;;;;;;;33.67;21.59;99342.78;4378868;32;32940;-82
2022/07/14 06:04:40;;;;;;;;;;;;;;;33.26;22.37;99339.81;4371543;32;34775;-83
2022/07/14 06:07:08;;;;;;;;;;;;;;;34.31;20.87;99338.56;4349822;32;34553;-84
2022/07/14 06:09:38;;;;;;;;;;;;;;;33.97;21.38;99337.75;4374623;32;34469;-82
2022/07/14 06:12:06;;;;;;;;;;;;;;;33.12;22.34;99340.91;4377437;32;33922;-92
2022/07/14 06:14:34;;;;;;;;;;;;;;;32.56;22.95;99338.03;4370915;32;34281;-83
2022/07/14 06:17:02;;;;;;;;;;;;;;;33.50;21.91;99345.13;4379210;32;33853;-84
2022/07/14 06:19:29;;;;;;;;;;;;;;;32.86;22.97;99341.06;4361620;32;34027;-86
2022/07/14 06:21:57;;;;;;;;;;;;;;;32.78;22.09;99343.47;4375028;32;33422;-96
2022/07/14 06:24:24;;;;;;;;;;;;;;;33.33;22.08;99335.69;4361413;32;33500;-91
2022/07/14 06:26:52;;;;;;;;;;;;;;;33.75;21.47;99341.31;4375348;32;35274;-92
2022/07/14 06:29:19;;;;;;;;;;;;;;;33.60;20.91;99341.59;4374795;32;34944;-88
2022/07/14 06:31:49;;;;;;;;;;;;;;;33.69;21.36;99340.00;4374936;32;33455;-96
2022/07/14 06:34:16;;;;;;;;;;;;;;;33.68;21.01;99332.94;4374903;32;33904;-83
2022/07/14 06:36:43;;;;;;;;;;;;;;;33.15;21.30;99329.94;4375225;32;34112;-83
2022/07/14 06:39:10;;;;;;;;;;;;;;;33.47;20.51;99335.47;4361443;32;35225;-84
2022/07/14 06:41:38;;;;;;;;;;;;;;;33.17;20.55;99327.97;4361699;32;33570;-83
2022/07/14 06:44:07;;;;;;;;;;;;;;;32.66;20.93;99329.16;4376417;32;33734;-85
2022/07/14 06:46:34;;;;;;;;;;;;;;;33.55;20.39;99327.66;4376979;32;34199;-91
2022/07/14 06:49:02;;;;;;;;;;;;;;;32.77;20.66;99330.16;4377239;32;34387;-88
2022/07/14 06:51:29;;;;;;;;;;;;;;;33.39;20.66;99333.38;4363084;32;32904;-87
2022/07/14 06:53:56;;;;;;;;;;;;;;;32.48;21.50;99324.34;4385082;32;33834;-82
2022/07/14 06:56:24;;;;;;;;;;;;;;;33.64;20.61;99331.44;4391482;32;34547;-81
2022/07/14 06:58:51;;;;;;;;;;;;;;;33.81;20.65;99330.94;4391785;32;33955;-83
2022/07/14 07:01:18;;;;;;;;;;;;;;;33.63;21.24;99335.09;4387495;32;34113;-81
2022/07/14 07:03:46;;;;;;;;;;;;;;;34.19;19.66;99326.97;4385448;32;35476;-87
2022/07/14 07:08:59;;;;;;;;;;;;;;;34.39;20.15;99331.56;4377634;32;34066;-80
2022/07/14 07:11:26;;;;;;;;;;;;;;;34.97;19.67;99333.91;4391793;32;33329;-80
2022/07/14 07:13:54;;;;;;;;;;;;;;;34.49;19.72;99323.59;4391591;32;35130;-82
2022/07/14 07:16:21;;;;;;;;;;;;;;;33.20;20.72;99326.88;4391765;32;34254;-80
2022/07/14 07:18:48;;;;;;;;;;;;;;;33.61;20.40;99327.19;4389394;32;34199;-80
2022/07/14 07:21:18;;;;;;;;;;;;;;;34.23;19.65;99323.06;4384300;32;34295;-93
2022/07/14 07:23:46;;;;;;;;;;;;;;;33.84;20.89;99322.63;4377049;32;33745;-82
2022/07/14 07:26:14;;;;;;;;;;;;;;;33.74;20.53;99316.28;4377060;32;34521;-82
2022/07/14 07:28:41;;;;;;;;;;;;;;;34.27;20.79;99319.12;4381505;32;33875;-82
2022/07/14 07:31:10;;;;;;;;;;;;;;;34.64;20.05;99326.84;4391949;32;34283;-83
2022/07/14 07:33:38;;;;;;;;;;;;;;;34.66;19.52;99318.62;4378159;32;35011;-82
2022/07/14 07:36:05;;;;;;;;;;;;;;;34.93;20.40;99315.41;4392050;32;34293;-86
2022/07/14 07:38:33;;;;;;;;;;;;;;;33.66;20.37;99321.41;4372507;32;34688;-88
2022/07/14 07:41:02;;;;;;;;;;;;;;;35.18;18.92;99304.25;4377028;32;33250;-83
2022/07/14 07:43:29;;;;;;;;;;;;;;;35.53;18.43;99309.25;4376790;32;34268;-91
2022/07/14 07:45:57;;;;;;;;;;;;;;;34.53;19.78;99310.75;4363358;32;34452;-90
2022/07/14 07:48:25;;;;;;;;;;;;;;;35.06;19.05;99305.34;4376424;32;33884;-90
2022/07/14 07:50:52;;;;;;;;;;;;;;;34.61;19.59;99305.56;4376825;32;34179;-95
2022/07/14 07:53:20;;;;;;;;;;;;;;;35.36;20.08;99312.59;4377447;32;35195;-94
2022/07/14 07:55:47;;;;;;;;;;;;;;;36.04;18.12;99307.47;4376422;32;34509;-94
2022/07/14 07:58:14;;;;;;;;;;;;;;;34.96;19.35;99307.91;4376805;32;34334;-88
2022/07/14 08:00:42;;;;;;;;;;;;;;;35.07;19.25;99304.34;4376494;32;34040;-92
2022/07/14 08:03:09;;;;;;;;;;;;;;;34.64;19.87;99302.63;4362768;32;33660;-91
2022/07/14 08:05:37;;;;;;;;;;;;;;;34.60;19.48;99311.94;4376563;32;34497;-93
2022/07/14 08:08:24;;;;;;;;;;;;;;;34.55;19.69;99300.69;4375953;32;35035;-92
2022/07/14 08:10:51;;;;;;;;;;;;;;;34.51;19.42;99293.84;4376393;32;34175;-83
2022/07/14 08:13:18;;;;;;;;;;;;;;;35.44;19.47;99293.03;4376391;32;34292;-92
2022/07/14 08:15:46;;;;;;;;;;;;;;;35.23;18.67;99293.06;4362707;32;34704;-82
2022/07/14 08:18:16;;;;;;;;;;;;;;;35.40;18.70;99291.59;4376799;32;34241;-89
2022/07/14 08:20:44;;;;;;;;;;;;;;;35.38;18.51;99290.88;4376695;32;33390;-92
2022/07/14 08:23:12;;;;;;;;;;;;;;;34.33;19.62;99285.47;4376017;32;33829;-82
2022/07/14 08:25:39;;;;;;;;;;;;;;;34.90;18.60;99280.69;4376220;32;34894;-90
2022/07/14 08:28:06;;;;;;;;;;;;;;;33.65;20.09;99284.78;4376213;32;34746;-86
2022/07/14 08:30:34;;;;;;;;;;;;;;;33.76;19.78;99292.81;4362699;32;34199;-82
2022/07/14 08:33:01;;;;;;;;;;;;;;;34.73;18.99;99284.81;4376323;32;34165;-82
2022/07/14 08:35:28;;;;;;;;;;;;;;;35.28;18.71;99283.59;4376483;32;34224;-82
2022/07/14 08:37:56;;;;;;;;;;;;;;;35.01;19.02;99278.78;4375613;32;34596;-85
2022/07/14 08:40:25;;;;;;;;;;;;;;;35.57;17.65;99272.97;4376546;32;33628;-82
2022/07/14 08:42:53;;;;;;;;;;;;;;;35.93;18.14;99283.28;4362552;32;33683;-91
2022/07/14 08:45:21;;;;;;;;;;;;;;;36.44;16.19;99268.69;4362640;32;34112;-85
2022/07/14 08:47:48;;;;;;;;;;;;;;;34.26;17.69;99274.38;4375680;32;34810;-85
2022/07/14 08:50:17;;;;;;;;;;;;;;;34.09;18.57;99264.13;4362542;32;33518;-83
2022/07/14 08:52:45;;;;;;;;;;;;;;;34.76;18.20;99263.84;4375957;32;33925;-82
2022/07/14 08:55:14;;;;;;;;;;;;;;;35.16;17.83;99279.31;4375647;32;34539;-83
2022/07/14 08:57:41;;;;;;;;;;;;;;;34.95;18.65;99264.97;4361017;32;33939;-82
2022/07/14 09:00:11;;;;;;;;;;;;;;;35.55;18.78;99268.69;4351473;32;33322;-87
2022/07/14 09:02:39;;;;;;;;;;;;;;;35.01;18.11;99268.00;4362505;32;33718;-85
2022/07/14 09:05:26;;;;;;;;;;;;;;;34.89;17.85;99265.47;4375445;32;34348;-88
2022/07/14 09:07:56;;;;;;;;;;;;;;;35.74;16.86;99260.66;4375671;32;33743;-82
2022/07/14 09:10:24;;;;;;;;;;;;;;;36.40;16.81;99253.78;4362578;32;33302;-94
2022/07/14 09:12:52;;;;;;;;;;;;;;;35.45;17.00;99255.13;4375943;32;34950;-94
2022/07/14 09:18:12;;;;;;;;;;;;;;;35.69;16.80;99249.44;4375973;32;33748;-82
2022/07/14 09:20:39;;;;;;;;;;;;;;;36.29;17.00;99242.16;4362458;32;32571;-91
2022/07/14 09:23:07;;;;;;;;;;;;;;;35.73;17.33;99247.31;4362521;32;33245;-85
2022/07/14 09:25:38;;;;;;;;;;;;;;;35.21;17.50;99244.72;4375787;32;34128;-90
2022/07/14 09:28:06;;;;;;;;;;;;;;;35.71;16.92;99242.06;4362328;32;34363;-89
2022/07/14 09:30:34;;;;;;;;;;;;;;;35.49;16.52;99240.44;4375539;32;33894;-84
2022/07/14 09:33:02;;;;;;;;;;;;;;;35.57;16.91;99234.34;4362452;32;34775;-92
2022/07/14 09:35:33;;;;;;;;;;;;;;;35.99;16.19;99234.16;4375914;32;34227;-88
2022/07/14 09:38:01;;;;;;;;;;;;;;;35.25;17.35;99238.06;4375907;32;34226;-93
2022/07/14 09:40:30;;;;;;;;;;;;;;;35.77;16.54;99237.97;4350058;32;34278;-93
2022/07/14 09:43:02;;;;;;;;;;;;;;;36.40;16.23;99232.19;4375722;32;34388;-86
2022/07/14 09:45:29;;;;;;;;;;;;;;;36.51;16.58;99230.19;4375236;32;34140;-85
2022/07/14 09:48:00;;;;;;;;;;;;;;;35.62;17.04;99232.09;4375897;32;33843;-81
2022/07/14 09:50:37;;;;;;;;;;;;;;;36.53;16.45;99238.19;4375715;32;34115;-86
2022/07/14 09:53:12;;;;;;;;;;;;;;;35.77;16.33;99228.03;4375126;32;35131;-82
2022/07/14 09:55:59;;;;;;;;;;;;;;;36.30;16.09;99226.81;4361996;32;35495;-89
2022/07/14 09:58:40;;;;;;;;;;;;;;;37.15;16.24;99225.09;4375989;32;35019;-81
2022/07/14 10:01:09;;;;;;;;;;;;;;;36.73;15.69;99217.38;4375496;32;33215;-82
2022/07/14 10:03:40;;;;;;;;;;;;;;;36.78;15.98;99209.66;4362462;32;34302;-81
2022/07/14 10:06:07;;;;;;;;;;;;;;;37.42;16.20;99222.41;4349683;32;34739;-82
2022/07/14 10:08:57;;;;;;;;;;;;;;;36.93;14.85;99218.16;4363744;32;35034;-82
2022/07/14 10:11:26;;;;;;;;;;;;;;;37.30;14.94;99207.38;4362290;32;34335;-81
2022/07/14 10:13:57;;;;;;;;;;;;;;;37.76;14.41;99210.13;4360965;32;34507;-82
2022/07/14 10:16:29;;;;;;;;;;;;;;;37.15;15.42;99201.59;4370045;32;34422;-82
2022/07/14 10:18:57;;;;;;;;;;;;;;;36.72;15.73;99197.62;4376599;32;34566;-83
2022/07/14 10:21:25;;;;;;;;;;;;;;;36.81;15.32;99198.56;4363653;32;34447;-81
2022/07/14 10:23:52;;;;;;;;;;;;;;;36.68;15.31;99196.22;4363868;32;35617;-80
2022/07/14 10:26:19;;;;;;;;;;;;;;;37.02;15.09;99201.13;4363492;32;33942;-81
2022/07/14 10:28:48;;;;;;;;;;;;;;;37.19;14.64;99192.19;4377221;32;33576;-83
2022/07/14 10:31:25;;;;;;;;;;;;;;;36.42;15.14;99187.00;4364723;32;33545;-92
2022/07/14 10:33:53;;;;;;;;;;;;;;;36.65;15.22;99187.53;4378434;32;34382;-85
2022/07/14 10:36:33;;;;;;;;;;;;;;;37.57;15.34;99184.91;4378084;32;34541;-89
2022/07/14 10:39:09;;;;;;;;;;;;;;;37.20;15.61;99188.50;4353077;32;34920;-89
2022/07/14 10:41:50;;;;;;;;;;;;;;;37.08;15.13;99183.44;4374276;32;33394;-82
2022/07/14 10:44:18;;;;;;;;;;;;;;;36.94;14.56;99177.53;4351508;32;33567;-83
2022/07/14 10:46:46;;;;;;;;;;;;;;;37.46;15.62;99183.25;4377015;32;35397;-82
2022/07/14 10:49:14;;;;;;;;;;;;;;;37.50;14.81;99184.66;4363576;32;34809;-82
2022/07/14 10:51:42;;;;;;;;;;;;;;;37.56;14.29;99177.78;4375859;32;33499;-82
2022/07/14 10:54:23;;;;;;;;;;;;;;;38.07;14.14;99170.84;4363687;32;33919;-82
2022/07/14 10:57:18;;;;;;;;;;;;;;;37.71;14.95;99165.44;4365664;32;34197;-82
2022/07/14 10:59:46;;;;;;;;;;;;;;;37.79;14.28;99161.13;4377044;32;34239;-82
2022/07/14 11:02:13;;;;;;;;;;;;;;;38.66;14.71;99163.88;4357217;32;34044;-82
2022/07/14 11:04:59;;;;;;;;;;;;;;;38.11;14.23;99157.88;4377140;32;34297;-85
2022/07/14 11:07:36;;;;;;;;;;;;;;;37.50;13.73;99156.75;4376428;32;34414;-82
2022/07/14 11:10:04;;;;;;;;;;;;;;;36.71;14.69;99155.41;4376752;32;35195;-82
2022/07/14 11:12:32;;;;;;;;;;;;;;;36.97;13.95;99149.34;4361634;32;33732;-87
2022/07/14 11:14:59;;;;;;;;;;;;;;;36.64;15.24;99148.03;4361816;32;33748;-86
2022/07/14 11:17:33;;;;;;;;;;;;;;;36.22;16.16;99141.13;4361758;32;34232;-83
2022/07/14 11:20:00;;;;;;;;;;;;;;;36.52;15.40;99139.22;4361942;32;33672;-82
2022/07/14 11:22:27;;;;;;;;;;;;;;;36.69;15.51;99135.78;4363642;32;34403;-81
2022/07/14 11:24:56;;;;;;;;;;;;;;;36.85;15.14;99131.59;4370430;32;34642;-82
2022/07/14 11:27:35;;;;;;;;;;;;;;;37.67;15.70;99130.75;4376545;32;34428;-82
2022/07/14 11:30:24;;;;;;;;;;;;;;;38.04;13.55;99129.75;4376114;32;34834;-81
2022/07/14 11:32:56;;;;;;;;;;;;;;;37.31;15.04;99129.81;4369322;32;33310;-80
2022/07/14 11:38:25;;;;;;;;;;;;;;;36.98;14.68;99121.34;4362372;32;34493;-82
2022/07/14 11:40:53;;;;;;;;;;;;;;;37.97;14.75;99133.06;4361457;32;34440;-82
2022/07/14 11:43:29;;;;;;;;;;;;;;;38.08;13.57;99115.72;4361565;32;34254;-90
2022/07/14 11:46:01;;;;;;;;;;;;;;;38.18;13.88;99113.75;4361702;32;35059;-82
2022/07/14 11:48:29;;;;;;;;;;;;;;;38.13;13.72;99115.25;4372617;32;35393;-83
2022/07/14 11:51:03;;;;;;;;;;;;;;;37.81;13.96;99113.09;4372604;32;34070;-83
2022/07/14 11:53:31;;;;;;;;;;;;;;;37.85;13.34;99112.66;4371535;32;33294;-89
2022/07/14 11:55:59;;;;;;;;;;;;;;;37.89;13.86;99113.22;4350308;32;34728;-83
2022/07/14 11:58:27;;;;;;;;;;;;;;;37.66;14.27;99107.41;4363120;32;34493;-83
2022/07/14 12:00:54;;;;;;;;;;;;;;;38.18;13.77;99102.94;4362925;32;34192;-82
2022/07/14 12:03:23;;;;;;;;;;;;;;;37.53;14.80;99102.34;4363798;32;34441;-84
2022/07/14 12:05:54;;;;;;;;;;;;;;;38.57;13.98;99096.28;4376289;32;34018;-82
2022/07/14 12:08:24;;;;;;;;;;;;;;;38.77;13.61;99091.47;4376030;32;34411;-90
2022/07/14 12:10:52;;;;;;;;;;;;;;;37.48;14.01;99096.56;4376491;32;33862;-83
2022/07/14 12:13:19;;;;;;;;;;;;;;;38.10;14.03;99097.47;4362923;32;33432;-84
2022/07/14 12:15:47;;;;;;;;;;;;;;;38.33;13.60;99099.66;4362775;32;34126;-84
2022/07/14 12:18:15;;;;;;;;;;;;;;;37.80;13.37;99090.59;4363046;32;34764;-82
2022/07/14 12:20:47;;;;;;;;;;;;;;;38.27;12.63;99089.47;4363127;32;33654;-83
2022/07/14 12:23:15;;;;;;;;;;;;;;;38.55;12.11;99082.03;4376263;32;34322;-85
2022/07/14 12:25:43;;;;;;;;;;;;;;;38.49;13.01;99086.22;4375787;32;34204;-83
2022/07/14 12:28:11;;;;;;;;;;;;;;;37.89;13.03;99075.34;4376444;32;34842;-88
2022/07/14 12:30:44;;;;;;;;;;;;;;;37.59;13.28;99090.09;4362769;32;34759;-86
2022/07/14 12:33:12;;;;;;;;;;;;;;;37.66;13.12;99081.19;4376118;32;34335;-82
2022/07/14 12:35:40;;;;;;;;;;;;;;;37.91;13.60;99076.00;4376329;32;34305;-88
2022/07/14 12:38:09;;;;;;;;;;;;;;;37.78;13.25;99059.31;4362376;32;34203;-90
2022/07/14 12:40:41;;;;;;;;;;;;;;;38.53;12.61;99075.91;4362507;32;34713;-82
2022/07/14 12:43:17;;;;;;;;;;;;;;;38.21;13.42;99067.41;4376488;32;33231;-90
2022/07/14 12:46:02;;;;;;;;;;;;;;;38.77;11.91;99058.94;4362628;32;33982;-89
2022/07/14 12:48:31;;;;;;;;;;;;;;;38.11;13.27;99065.81;4362282;32;34536;-82
2022/07/14 12:51:16;;;;;;;;;;;;;;;38.79;12.76;99051.47;4375651;32;33940;-84
2022/07/14 12:53:57;;;;;;;;;;;;;;;37.22;12.62;99051.31;4375889;32;34559;-82
2022/07/14 12:56:25;;;;;;;;;;;;;;;37.95;12.98;99053.88;4362772;32;34959;-84
2022/07/14 12:58:53;;;;;;;;;;;;;;;38.76;11.54;99051.84;4363114;32;35060;-84
2022/07/14 13:01:20;;;;;;;;;;;;;;;38.34;13.08;99064.34;4362451;32;33694;-84
2022/07/14 13:03:55;;;;;;;;;;;;;;;38.53;13.29;99051.53;4362310;32;33363;-92
2022/07/14 13:06:23;;;;;;;;;;;;;;;38.65;11.76;99051.09;4375748;32;35631;-85
2022/07/14 13:08:51;;;;;;;;;;;;;;;37.40;12.84;99036.97;4362364;32;35001;-83
2022/07/14 13:11:18;;;;;;;;;;;;;;;38.62;12.06;99035.16;4376300;32;33790;-83